sensor_id;sensor_type;location;lat;lon;timestamp;pressure;altitude;pressure_sealevel;temperature
19666;BMP180;9980;51.020;7.772;2023-06-14T00:02:10;97414.00;;;19.10
19666;BMP180;9980;51.020;7.772;2023-06-14T00:04:38;97436.00;;;19.00
19666;BMP180;9980;51.020;7.772;2023-06-14T00:07:06;97433.00;;;19.00
19666;BMP180;9980;51.020;7.772;2023-06-14T00:09:38;97436.00;;;18.90
19666;BMP180;9980;51.020;7.772;2023-06-14T00:12:05;97431.00;;;18.90
19666;BMP180;9980;51.020;7.772;2023-06-14T00:14:33;97427.00;;;18.80
19666;BMP180;9980;51.020;7.772;2023-06-14T00:17:00;97431.00;;;18.80
19666;BMP180;9980;51.020;7.772;2023-06-14T00:19:28;97428.00;;;18.70
19666;BMP180;9980;51.020;7.772;2023-06-14T00:21:56;97436.00;;;18.70
19666;BMP180;9980;51.020;7.772;2023-06-14T00:24:23;97427.00;;;18.60
19666;BMP180;9980;51.020;7.772;2023-06-14T00:26:50;97447.00;;;18.60
19666;BMP180;9980;51.020;7.772;2023-06-14T00:29:17;97440.00;;;18.50
19666;BMP180;9980;51.020;7.772;2023-06-14T00:31:44;97437.00;;;18.50
19666;BMP180;9980;51.020;7.772;2023-06-14T00:34:11;97428.00;;;18.40
19666;BMP180;9980;51.020;7.772;2023-06-14T00:36:43;97425.00;;;18.40
19666;BMP180;9980;51.020;7.772;2023-06-14T00:39:13;97427.00;;;18.30
19666;BMP180;9980;51.020;7.772;2023-06-14T00:41:40;97427.00;;;18.30
19666;BMP180;9980;51.020;7.772;2023-06-14T00:44:07;97428.00;;;18.20
19666;BMP180;9980;51.020;7.772;2023-06-14T00:46:34;97437.00;;;18.20
19666;BMP180;9980;51.020;7.772;2023-06-14T00:49:01;97436.00;;;18.10
19666;BMP180;9980;51.020;7.772;2023-06-14T00:51:29;97433.00;;;18.10
19666;BMP180;9980;51.020;7.772;2023-06-14T00:53:56;97434.00;;;18.10
19666;BMP180;9980;51.020;7.772;2023-06-14T00:56:23;97437.00;;;18.00
19666;BMP180;9980;51.020;7.772;2023-06-14T00:58:50;97434.00;;;18.00
19666;BMP180;9980;51.020;7.772;2023-06-14T01:01:18;97437.00;;;17.90
19666;BMP180;9980;51.020;7.772;2023-06-14T01:03:45;97437.00;;;17.90
19666;BMP180;9980;51.020;7.772;2023-06-14T01:06:57;97424.00;;;17.80
19666;BMP180;9980;51.020;7.772;2023-06-14T01:14:57;97441.00;;;17.60
19666;BMP180;9980;51.020;7.772;2023-06-14T01:17:27;97436.00;;;17.60
19666;BMP180;9980;51.020;7.772;2023-06-14T01:20:02;97441.00;;;17.60
19666;BMP180;9980;51.020;7.772;2023-06-14T01:22:30;97442.00;;;17.50
19666;BMP180;9980;51.020;7.772;2023-06-14T01:24:57;97437.00;;;17.50
19666;BMP180;9980;51.020;7.772;2023-06-14T01:27:26;97440.00;;;17.40
19666;BMP180;9980;51.020;7.772;2023-06-14T01:29:59;97446.00;;;17.40
19666;BMP180;9980;51.020;7.772;2023-06-14T01:32:32;97442.00;;;17.30
19666;BMP180;9980;51.020;7.772;2023-06-14T01:35:00;97432.00;;;17.30
19666;BMP180;9980;51.020;7.772;2023-06-14T01:37:28;97448.00;;;17.30
19666;BMP180;9980;51.020;7.772;2023-06-14T01:39:56;97437.00;;;17.20
19666;BMP180;9980;51.020;7.772;2023-06-14T01:42:24;97445.00;;;17.20
19666;BMP180;9980;51.020;7.772;2023-06-14T01:44:53;97443.00;;;17.20
19666;BMP180;9980;51.020;7.772;2023-06-14T01:47:21;97439.00;;;17.10
19666;BMP180;9980;51.020;7.772;2023-06-14T01:49:48;97443.00;;;17.10
19666;BMP180;9980;51.020;7.772;2023-06-14T01:52:15;97439.00;;;17.00
19666;BMP180;9980;51.020;7.772;2023-06-14T01:54:42;97453.00;;;17.00
19666;BMP180;9980;51.020;7.772;2023-06-14T01:57:10;97431.00;;;17.00
19666;BMP180;9980;51.020;7.772;2023-06-14T01:59:37;97437.00;;;16.90
19666;BMP180;9980;51.020;7.772;2023-06-14T02:02:04;97441.00;;;16.90
19666;BMP180;9980;51.020;7.772;2023-06-14T02:04:31;97437.00;;;16.90
19666;BMP180;9980;51.020;7.772;2023-06-14T02:06:58;97439.00;;;16.80
19666;BMP180;9980;51.020;7.772;2023-06-14T02:09:30;97443.00;;;16.80
19666;BMP180;9980;51.020;7.772;2023-06-14T02:12:01;97447.00;;;16.80
19666;BMP180;9980;51.020;7.772;2023-06-14T02:14:29;97429.00;;;16.70
19666;BMP180;9980;51.020;7.772;2023-06-14T02:16:56;97440.00;;;16.70
19666;BMP180;9980;51.020;7.772;2023-06-14T02:19:23;97442.00;;;16.70
19666;BMP180;9980;51.020;7.772;2023-06-14T02:21:50;97431.00;;;16.60
19666;BMP180;9980;51.020;7.772;2023-06-14T02:24:17;97433.00;;;16.60
19666;BMP180;9980;51.020;7.772;2023-06-14T02:26:44;97434.00;;;16.60
19666;BMP180;9980;51.020;7.772;2023-06-14T02:29:14;97426.00;;;16.50
19666;BMP180;9980;51.020;7.772;2023-06-14T02:31:42;97436.00;;;16.50
19666;BMP180;9980;51.020;7.772;2023-06-14T02:34:09;97438.00;;;16.40
19666;BMP180;9980;51.020;7.772;2023-06-14T02:36:36;97442.00;;;16.40
19666;BMP180;9980;51.020;7.772;2023-06-14T02:39:09;97437.00;;;16.40
19666;BMP180;9980;51.020;7.772;2023-06-14T02:41:38;97435.00;;;16.30
19666;BMP180;9980;51.020;7.772;2023-06-14T02:44:06;97433.00;;;16.30
19666;BMP180;9980;51.020;7.772;2023-06-14T02:46:33;97432.00;;;16.30
19666;BMP180;9980;51.020;7.772;2023-06-14T02:49:00;97431.00;;;16.20
19666;BMP180;9980;51.020;7.772;2023-06-14T02:51:27;97430.00;;;16.20
19666;BMP180;9980;51.020;7.772;2023-06-14T02:53:54;97427.00;;;16.20
19666;BMP180;9980;51.020;7.772;2023-06-14T02:56:22;97429.00;;;16.10
19666;BMP180;9980;51.020;7.772;2023-06-14T02:58:49;97433.00;;;16.10
19666;BMP180;9980;51.020;7.772;2023-06-14T03:01:17;97438.00;;;16.10
19666;BMP180;9980;51.020;7.772;2023-06-14T03:03:46;97446.00;;;16.00
19666;BMP180;9980;51.020;7.772;2023-06-14T03:06:13;97437.00;;;16.00
19666;BMP180;9980;51.020;7.772;2023-06-14T03:08:45;97449.00;;;16.00
19666;BMP180;9980;51.020;7.772;2023-06-14T03:11:15;97430.00;;;15.90
19666;BMP180;9980;51.020;7.772;2023-06-14T03:13:43;97441.00;;;15.90
19666;BMP180;9980;51.020;7.772;2023-06-14T03:16:12;97447.00;;;15.90
19666;BMP180;9980;51.020;7.772;2023-06-14T03:18:40;97441.00;;;15.90
19666;BMP180;9980;51.020;7.772;2023-06-14T03:21:07;97448.00;;;15.80
19666;BMP180;9980;51.020;7.772;2023-06-14T03:23:37;97445.00;;;15.80
19666;BMP180;9980;51.020;7.772;2023-06-14T03:26:04;97456.00;;;15.80
19666;BMP180;9980;51.020;7.772;2023-06-14T03:28:32;97468.00;;;15.80
19666;BMP180;9980;51.020;7.772;2023-06-14T03:30:59;97457.00;;;15.70
19666;BMP180;9980;51.020;7.772;2023-06-14T03:33:30;97457.00;;;15.70
19666;BMP180;9980;51.020;7.772;2023-06-14T03:35:57;97468.00;;;15.70
19666;BMP180;9980;51.020;7.772;2023-06-14T03:38:25;97478.00;;;15.70
19666;BMP180;9980;51.020;7.772;2023-06-14T03:40:52;97467.00;;;15.70
19666;BMP180;9980;51.020;7.772;2023-06-14T03:43:19;97463.00;;;15.60
19666;BMP180;9980;51.020;7.772;2023-06-14T03:45:46;97478.00;;;15.60
19666;BMP180;9980;51.020;7.772;2023-06-14T03:48:13;97485.00;;;15.60
19666;BMP180;9980;51.020;7.772;2023-06-14T03:50:41;97488.00;;;15.60
19666;BMP180;9980;51.020;7.772;2023-06-14T03:53:09;97482.00;;;15.60
19666;BMP180;9980;51.020;7.772;2023-06-14T03:55:40;97495.00;;;15.60
19666;BMP180;9980;51.020;7.772;2023-06-14T03:58:25;97510.00;;;15.60
19666;BMP180;9980;51.020;7.772;2023-06-14T04:00:52;97505.00;;;15.50
19666;BMP180;9980;51.020;7.772;2023-06-14T04:03:19;97521.00;;;15.50
19666;BMP180;9980;51.020;7.772;2023-06-14T04:05:46;97502.00;;;15.50
19666;BMP180;9980;51.020;7.772;2023-06-14T04:08:17;97510.00;;;15.50
19666;BMP180;9980;51.020;7.772;2023-06-14T04:10:46;97518.00;;;15.50
19666;BMP180;9980;51.020;7.772;2023-06-14T04:13:14;97505.00;;;15.50
19666;BMP180;9980;51.020;7.772;2023-06-14T04:15:41;97505.00;;;15.50
19666;BMP180;9980;51.020;7.772;2023-06-14T04:18:12;97524.00;;;15.50
19666;BMP180;9980;51.020;7.772;2023-06-14T04:20:39;97522.00;;;15.50
19666;BMP180;9980;51.020;7.772;2023-06-14T04:23:16;97527.00;;;15.50
19666;BMP180;9980;51.020;7.772;2023-06-14T04:25:45;97525.00;;;15.50
19666;BMP180;9980;51.020;7.772;2023-06-14T04:28:14;97527.00;;;15.50
19666;BMP180;9980;51.020;7.772;2023-06-14T04:30:45;97536.00;;;15.50
19666;BMP180;9980;51.020;7.772;2023-06-14T04:33:15;97504.00;;;15.60
19666;BMP180;9980;51.020;7.772;2023-06-14T04:35:42;97503.00;;;15.60
19666;BMP180;9980;51.020;7.772;2023-06-14T04:38:10;97523.00;;;15.70
19666;BMP180;9980;51.020;7.772;2023-06-14T04:40:38;97519.00;;;15.90
19666;BMP180;9980;51.020;7.772;2023-06-14T04:43:15;97517.00;;;16.10
19666;BMP180;9980;51.020;7.772;2023-06-14T04:45:44;97529.00;;;16.30
19666;BMP180;9980;51.020;7.772;2023-06-14T04:48:13;97524.00;;;16.50
19666;BMP180;9980;51.020;7.772;2023-06-14T04:50:40;97515.00;;;16.70
19666;BMP180;9980;51.020;7.772;2023-06-14T04:53:08;97522.00;;;16.90
19666;BMP180;9980;51.020;7.772;2023-06-14T04:55:35;97517.00;;;17.10
19666;BMP180;9980;51.020;7.772;2023-06-14T04:58:03;97530.00;;;17.20
19666;BMP180;9980;51.020;7.772;2023-06-14T05:00:31;97522.00;;;17.40
19666;BMP180;9980;51.020;7.772;2023-06-14T05:02:58;97524.00;;;17.50
19666;BMP180;9980;51.020;7.772;2023-06-14T05:05:26;97527.00;;;17.70
19666;BMP180;9980;51.020;7.772;2023-06-14T05:07:53;97528.00;;;17.80
19666;BMP180;9980;51.020;7.772;2023-06-14T05:10:19;97528.00;;;17.90
19666;BMP180;9980;51.020;7.772;2023-06-14T05:12:47;97538.00;;;18.00
19666;BMP180;9980;51.020;7.772;2023-06-14T05:15:16;97527.00;;;18.20
19666;BMP180;9980;51.020;7.772;2023-06-14T05:17:45;97522.00;;;18.30
19666;BMP180;9980;51.020;7.772;2023-06-14T05:20:14;97524.00;;;18.40
19666;BMP180;9980;51.020;7.772;2023-06-14T05:22:42;97540.00;;;18.60
19666;BMP180;9980;51.020;7.772;2023-06-14T05:25:09;97525.00;;;18.70
19666;BMP180;9980;51.020;7.772;2023-06-14T05:27:36;97525.00;;;18.80
19666;BMP180;9980;51.020;7.772;2023-06-14T05:30:04;97529.00;;;18.90
19666;BMP180;9980;51.020;7.772;2023-06-14T05:32:32;97533.00;;;19.00
19666;BMP180;9980;51.020;7.772;2023-06-14T05:34:58;97540.00;;;19.10
19666;BMP180;9980;51.020;7.772;2023-06-14T05:37:25;97531.00;;;19.20
19666;BMP180;9980;51.020;7.772;2023-06-14T05:39:52;97531.00;;;19.40
19666;BMP180;9980;51.020;7.772;2023-06-14T05:42:19;97527.00;;;19.40
19666;BMP180;9980;51.020;7.772;2023-06-14T05:44:46;97530.00;;;19.50
19666;BMP180;9980;51.020;7.772;2023-06-14T05:47:13;97529.00;;;19.60
19666;BMP180;9980;51.020;7.772;2023-06-14T05:49:41;97535.00;;;19.70
19666;BMP180;9980;51.020;7.772;2023-06-14T05:52:08;97528.00;;;19.80
19666;BMP180;9980;51.020;7.772;2023-06-14T05:54:35;97541.00;;;19.90
19666;BMP180;9980;51.020;7.772;2023-06-14T05:57:02;97527.00;;;20.00
19666;BMP180;9980;51.020;7.772;2023-06-14T05:59:30;97536.00;;;20.10
19666;BMP180;9980;51.020;7.772;2023-06-14T06:01:56;97545.00;;;20.20
19666;BMP180;9980;51.020;7.772;2023-06-14T06:04:24;97529.00;;;20.30
19666;BMP180;9980;51.020;7.772;2023-06-14T06:06:51;97533.00;;;20.30
19666;BMP180;9980;51.020;7.772;2023-06-14T06:09:18;97529.00;;;20.40
19666;BMP180;9980;51.020;7.772;2023-06-14T06:11:45;97530.00;;;20.50
19666;BMP180;9980;51.020;7.772;2023-06-14T06:14:19;97530.00;;;20.60
19666;BMP180;9980;51.020;7.772;2023-06-14T06:16:46;97532.00;;;20.70
19666;BMP180;9980;51.020;7.772;2023-06-14T06:19:14;97539.00;;;20.80
19666;BMP180;9980;51.020;7.772;2023-06-14T06:21:41;97535.00;;;20.90
19666;BMP180;9980;51.020;7.772;2023-06-14T06:24:08;97541.00;;;21.00
19666;BMP180;9980;51.020;7.772;2023-06-14T06:26:35;97523.00;;;21.00
19666;BMP180;9980;51.020;7.772;2023-06-14T06:29:02;97530.00;;;21.10
19666;BMP180;9980;51.020;7.772;2023-06-14T06:31:29;97528.00;;;21.20
19666;BMP180;9980;51.020;7.772;2023-06-14T06:33:56;97539.00;;;21.30
19666;BMP180;9980;51.020;7.772;2023-06-14T06:36:23;97533.00;;;21.40
19666;BMP180;9980;51.020;7.772;2023-06-14T06:38:50;97536.00;;;21.50
19666;BMP180;9980;51.020;7.772;2023-06-14T06:41:18;97534.00;;;21.50
19666;BMP180;9980;51.020;7.772;2023-06-14T06:43:45;97541.00;;;21.60
19666;BMP180;9980;51.020;7.772;2023-06-14T06:46:15;97534.00;;;21.70
19666;BMP180;9980;51.020;7.772;2023-06-14T06:48:44;97545.00;;;21.80
19666;BMP180;9980;51.020;7.772;2023-06-14T06:51:11;97548.00;;;21.90
19666;BMP180;9980;51.020;7.772;2023-06-14T06:53:42;97549.00;;;21.90
19666;BMP180;9980;51.020;7.772;2023-06-14T06:56:10;97548.00;;;22.00
19666;BMP180;9980;51.020;7.772;2023-06-14T06:58:37;97545.00;;;22.10
19666;BMP180;9980;51.020;7.772;2023-06-14T07:01:04;97546.00;;;22.20
19666;BMP180;9980;51.020;7.772;2023-06-14T07:03:31;97547.00;;;22.30
19666;BMP180;9980;51.020;7.772;2023-06-14T07:05:58;97556.00;;;22.40
19666;BMP180;9980;51.020;7.772;2023-06-14T07:08:25;97550.00;;;22.50
19666;BMP180;9980;51.020;7.772;2023-06-14T07:10:52;97543.00;;;22.60
19666;BMP180;9980;51.020;7.772;2023-06-14T07:13:19;97549.00;;;22.60
19666;BMP180;9980;51.020;7.772;2023-06-14T07:15:46;97547.00;;;22.80
19666;BMP180;9980;51.020;7.772;2023-06-14T07:18:13;97551.00;;;22.90
19666;BMP180;9980;51.020;7.772;2023-06-14T07:20:42;97556.00;;;23.00
19666;BMP180;9980;51.020;7.772;2023-06-14T07:23:09;97561.00;;;23.10
19666;BMP180;9980;51.020;7.772;2023-06-14T07:25:37;97562.00;;;23.10
19666;BMP180;9980;51.020;7.772;2023-06-14T07:28:04;97555.00;;;23.20
19666;BMP180;9980;51.020;7.772;2023-06-14T07:30:31;97562.00;;;23.30
19666;BMP180;9980;51.020;7.772;2023-06-14T07:32:58;97554.00;;;23.30
19666;BMP180;9980;51.020;7.772;2023-06-14T07:35:25;97543.00;;;23.40
19666;BMP180;9980;51.020;7.772;2023-06-14T07:37:52;97546.00;;;23.50
19666;BMP180;9980;51.020;7.772;2023-06-14T07:40:19;97550.00;;;23.60
19666;BMP180;9980;51.020;7.772;2023-06-14T07:42:46;97560.00;;;23.70
19666;BMP180;9980;51.020;7.772;2023-06-14T07:45:14;97549.00;;;23.80
19666;BMP180;9980;51.020;7.772;2023-06-14T07:47:42;97544.00;;;23.80
19666;BMP180;9980;51.020;7.772;2023-06-14T07:50:09;97559.00;;;23.90
19666;BMP180;9980;51.020;7.772;2023-06-14T07:52:37;97546.00;;;24.00
19666;BMP180;9980;51.020;7.772;2023-06-14T07:55:05;97549.00;;;24.10
19666;BMP180;9980;51.020;7.772;2023-06-14T07:57:32;97534.00;;;24.20
19666;BMP180;9980;51.020;7.772;2023-06-14T07:59:59;97539.00;;;24.30
19666;BMP180;9980;51.020;7.772;2023-06-14T08:02:26;97553.00;;;24.40
19666;BMP180;9980;51.020;7.772;2023-06-14T08:04:53;97557.00;;;24.50
19666;BMP180;9980;51.020;7.772;2023-06-14T08:07:21;97553.00;;;24.60
19666;BMP180;9980;51.020;7.772;2023-06-14T08:09:47;97571.00;;;24.70
19666;BMP180;9980;51.020;7.772;2023-06-14T08:12:15;97567.00;;;24.80
19666;BMP180;9980;51.020;7.772;2023-06-14T08:14:42;97557.00;;;24.80
19666;BMP180;9980;51.020;7.772;2023-06-14T08:17:09;97559.00;;;24.90
19666;BMP180;9980;51.020;7.772;2023-06-14T08:19:36;97569.00;;;25.00
19666;BMP180;9980;51.020;7.772;2023-06-14T08:22:04;97559.00;;;25.10
19666;BMP180;9980;51.020;7.772;2023-06-14T08:24:31;97563.00;;;25.20
19666;BMP180;9980;51.020;7.772;2023-06-14T08:26:59;97562.00;;;25.30
19666;BMP180;9980;51.020;7.772;2023-06-14T08:29:27;97556.00;;;25.30
19666;BMP180;9980;51.020;7.772;2023-06-14T08:31:58;97560.00;;;25.40
19666;BMP180;9980;51.020;7.772;2023-06-14T08:34:25;97575.00;;;25.50
19666;BMP180;9980;51.020;7.772;2023-06-14T08:36:52;97566.00;;;25.60
19666;BMP180;9980;51.020;7.772;2023-06-14T08:39:19;97567.00;;;25.70
19666;BMP180;9980;51.020;7.772;2023-06-14T08:41:47;97565.00;;;25.70
19666;BMP180;9980;51.020;7.772;2023-06-14T08:44:18;97562.00;;;25.80
19666;BMP180;9980;51.020;7.772;2023-06-14T08:46:47;97567.00;;;25.80
19666;BMP180;9980;51.020;7.772;2023-06-14T08:49:17;97569.00;;;25.90
19666;BMP180;9980;51.020;7.772;2023-06-14T08:51:44;97569.00;;;25.90
19666;BMP180;9980;51.020;7.772;2023-06-14T08:54:14;97559.00;;;26.00
19666;BMP180;9980;51.020;7.772;2023-06-14T08:56:42;97560.00;;;26.00
19666;BMP180;9980;51.020;7.772;2023-06-14T08:59:11;97547.00;;;26.00
19666;BMP180;9980;51.020;7.772;2023-06-14T09:01:38;97546.00;;;26.10
19666;BMP180;9980;51.020;7.772;2023-06-14T09:04:10;97562.00;;;26.20
19666;BMP180;9980;51.020;7.772;2023-06-14T09:06:37;97557.00;;;26.20
19666;BMP180;9980;51.020;7.772;2023-06-14T09:09:04;97574.00;;;26.30
19666;BMP180;9980;51.020;7.772;2023-06-14T09:11:31;97570.00;;;26.30
19666;BMP180;9980;51.020;7.772;2023-06-14T09:13:58;97574.00;;;26.40
19666;BMP180;9980;51.020;7.772;2023-06-14T09:16:25;97568.00;;;26.40
19666;BMP180;9980;51.020;7.772;2023-06-14T09:18:54;97569.00;;;26.50
19666;BMP180;9980;51.020;7.772;2023-06-14T09:21:21;97578.00;;;26.60
19666;BMP180;9980;51.020;7.772;2023-06-14T09:23:48;97574.00;;;26.70
19666;BMP180;9980;51.020;7.772;2023-06-14T09:26:18;97564.00;;;26.70
19666;BMP180;9980;51.020;7.772;2023-06-14T09:28:50;97580.00;;;26.80
19666;BMP180;9980;51.020;7.772;2023-06-14T09:31:19;97575.00;;;26.80
19666;BMP180;9980;51.020;7.772;2023-06-14T09:33:50;97576.00;;;26.90
19666;BMP180;9980;51.020;7.772;2023-06-14T09:36:24;97574.00;;;27.00
19666;BMP180;9980;51.020;7.772;2023-06-14T09:39:01;97577.00;;;27.00
19666;BMP180;9980;51.020;7.772;2023-06-14T09:41:37;97583.00;;;27.10
19666;BMP180;9980;51.020;7.772;2023-06-14T09:44:06;97575.00;;;27.10
19666;BMP180;9980;51.020;7.772;2023-06-14T09:46:40;97568.00;;;27.20
19666;BMP180;9980;51.020;7.772;2023-06-14T09:49:08;97582.00;;;27.30
19666;BMP180;9980;51.020;7.772;2023-06-14T09:51:42;97581.00;;;27.30
19666;BMP180;9980;51.020;7.772;2023-06-14T09:54:16;97576.00;;;27.40
19666;BMP180;9980;51.020;7.772;2023-06-14T09:56:47;97574.00;;;27.40
19666;BMP180;9980;51.020;7.772;2023-06-14T09:59:19;97589.00;;;27.40
19666;BMP180;9980;51.020;7.772;2023-06-14T10:01:49;97585.00;;;27.50
19666;BMP180;9980;51.020;7.772;2023-06-14T10:04:21;97594.00;;;27.50
19666;BMP180;9980;51.020;7.772;2023-06-14T10:06:50;97595.00;;;27.50
19666;BMP180;9980;51.020;7.772;2023-06-14T10:09:18;97604.00;;;27.60
19666;BMP180;9980;51.020;7.772;2023-06-14T10:11:45;97601.00;;;27.60
19666;BMP180;9980;51.020;7.772;2023-06-14T10:14:14;97606.00;;;27.60
19666;BMP180;9980;51.020;7.772;2023-06-14T10:19:27;97600.00;;;27.70
19666;BMP180;9980;51.020;7.772;2023-06-14T10:22:18;97602.00;;;27.70
19666;BMP180;9980;51.020;7.772;2023-06-14T10:24:46;97598.00;;;27.80
19666;BMP180;9980;51.020;7.772;2023-06-14T10:27:15;97591.00;;;27.90
19666;BMP180;9980;51.020;7.772;2023-06-14T10:32:20;97611.00;;;27.90
19666;BMP180;9980;51.020;7.772;2023-06-14T10:34:59;97605.00;;;27.90
19666;BMP180;9980;51.020;7.772;2023-06-14T10:37:27;97609.00;;;28.00
19666;BMP180;9980;51.020;7.772;2023-06-14T10:39:54;97599.00;;;28.10
19666;BMP180;9980;51.020;7.772;2023-06-14T10:42:28;97603.00;;;28.10
19666;BMP180;9980;51.020;7.772;2023-06-14T10:44:58;97607.00;;;28.20
19666;BMP180;9980;51.020;7.772;2023-06-14T10:47:35;97594.00;;;28.30
19666;BMP180;9980;51.020;7.772;2023-06-14T10:50:08;97621.00;;;28.40
19666;BMP180;9980;51.020;7.772;2023-06-14T10:52:39;97616.00;;;28.40
19666;BMP180;9980;51.020;7.772;2023-06-14T10:55:19;97608.00;;;28.40
19666;BMP180;9980;51.020;7.772;2023-06-14T10:57:54;97592.00;;;28.50
19666;BMP180;9980;51.020;7.772;2023-06-14T11:00:28;97598.00;;;28.60
19666;BMP180;9980;51.020;7.772;2023-06-14T11:03:50;97601.00;;;28.50
19666;BMP180;9980;51.020;7.772;2023-06-14T11:06:22;97609.00;;;28.60
19666;BMP180;9980;51.020;7.772;2023-06-14T11:12:31;97610.00;;;28.80
19666;BMP180;9980;51.020;7.772;2023-06-14T11:15:00;97603.00;;;28.90
19666;BMP180;9980;51.020;7.772;2023-06-14T11:17:27;97608.00;;;28.90
19666;BMP180;9980;51.020;7.772;2023-06-14T11:20:11;97612.00;;;28.80
19666;BMP180;9980;51.020;7.772;2023-06-14T11:22:47;97601.00;;;28.90
19666;BMP180;9980;51.020;7.772;2023-06-14T11:25:14;97616.00;;;29.00
19666;BMP180;9980;51.020;7.772;2023-06-14T11:27:43;97599.00;;;29.00
19666;BMP180;9980;51.020;7.772;2023-06-14T11:30:11;97605.00;;;29.00
19666;BMP180;9980;51.020;7.772;2023-06-14T11:32:39;97606.00;;;29.00
19666;BMP180;9980;51.020;7.772;2023-06-14T11:35:08;97606.00;;;29.00
19666;BMP180;9980;51.020;7.772;2023-06-14T11:37:36;97604.00;;;29.00
19666;BMP180;9980;51.020;7.772;2023-06-14T11:40:08;97616.00;;;29.00
19666;BMP180;9980;51.020;7.772;2023-06-14T11:42:38;97604.00;;;29.10
19666;BMP180;9980;51.020;7.772;2023-06-14T11:45:09;97604.00;;;29.10
19666;BMP180;9980;51.020;7.772;2023-06-14T11:47:39;97607.00;;;29.20
19666;BMP180;9980;51.020;7.772;2023-06-14T11:50:08;97614.00;;;29.20
19666;BMP180;9980;51.020;7.772;2023-06-14T11:52:37;97616.00;;;29.30
19666;BMP180;9980;51.020;7.772;2023-06-14T11:55:05;97614.00;;;29.30
19666;BMP180;9980;51.020;7.772;2023-06-14T11:57:36;97607.00;;;29.30
19666;BMP180;9980;51.020;7.772;2023-06-14T12:00:06;97613.00;;;29.40
19666;BMP180;9980;51.020;7.772;2023-06-14T12:02:38;97621.00;;;29.50
19666;BMP180;9980;51.020;7.772;2023-06-14T12:05:09;97612.00;;;29.50
19666;BMP180;9980;51.020;7.772;2023-06-14T12:07:37;97611.00;;;29.50
19666;BMP180;9980;51.020;7.772;2023-06-14T12:10:08;97615.00;;;29.50
19666;BMP180;9980;51.020;7.772;2023-06-14T12:12:37;97631.00;;;29.50
19666;BMP180;9980;51.020;7.772;2023-06-14T12:15:06;97625.00;;;29.50
19666;BMP180;9980;51.020;7.772;2023-06-14T12:18:07;97623.00;;;29.60
19666;BMP180;9980;51.020;7.772;2023-06-14T12:20:35;97616.00;;;29.70
19666;BMP180;9980;51.020;7.772;2023-06-14T12:23:04;97618.00;;;29.80
19666;BMP180;9980;51.020;7.772;2023-06-14T12:25:37;97605.00;;;29.80
19666;BMP180;9980;51.020;7.772;2023-06-14T12:28:09;97612.00;;;29.80
19666;BMP180;9980;51.020;7.772;2023-06-14T12:30:37;97614.00;;;29.90
19666;BMP180;9980;51.020;7.772;2023-06-14T12:33:05;97608.00;;;30.00
19666;BMP180;9980;51.020;7.772;2023-06-14T12:35:33;97618.00;;;30.10
19666;BMP180;9980;51.020;7.772;2023-06-14T12:38:00;97615.00;;;30.10
19666;BMP180;9980;51.020;7.772;2023-06-14T12:40:27;97609.00;;;30.20
19666;BMP180;9980;51.020;7.772;2023-06-14T12:42:54;97598.00;;;30.30
19666;BMP180;9980;51.020;7.772;2023-06-14T12:45:21;97614.00;;;30.30
19666;BMP180;9980;51.020;7.772;2023-06-14T12:47:49;97613.00;;;30.30
19666;BMP180;9980;51.020;7.772;2023-06-14T12:50:16;97616.00;;;30.30
19666;BMP180;9980;51.020;7.772;2023-06-14T12:52:44;97619.00;;;30.20
19666;BMP180;9980;51.020;7.772;2023-06-14T12:55:11;97616.00;;;30.20
19666;BMP180;9980;51.020;7.772;2023-06-14T12:57:38;97617.00;;;30.20
19666;BMP180;9980;51.020;7.772;2023-06-14T13:00:06;97608.00;;;30.20
19666;BMP180;9980;51.020;7.772;2023-06-14T13:02:34;97619.00;;;30.30
19666;BMP180;9980;51.020;7.772;2023-06-14T13:05:02;97618.00;;;30.30
19666;BMP180;9980;51.020;7.772;2023-06-14T13:07:30;97620.00;;;30.30
19666;BMP180;9980;51.020;7.772;2023-06-14T13:09:57;97601.00;;;30.30
19666;BMP180;9980;51.020;7.772;2023-06-14T13:12:24;97620.00;;;30.30
19666;BMP180;9980;51.020;7.772;2023-06-14T13:14:51;97626.00;;;30.20
19666;BMP180;9980;51.020;7.772;2023-06-14T13:17:18;97622.00;;;30.20
19666;BMP180;9980;51.020;7.772;2023-06-14T13:19:45;97633.00;;;30.20
19666;BMP180;9980;51.020;7.772;2023-06-14T13:22:12;97625.00;;;30.20
19666;BMP180;9980;51.020;7.772;2023-06-14T13:24:39;97627.00;;;30.20
19666;BMP180;9980;51.020;7.772;2023-06-14T13:27:06;97627.00;;;30.20
19666;BMP180;9980;51.020;7.772;2023-06-14T13:29:33;97641.00;;;30.10
19666;BMP180;9980;51.020;7.772;2023-06-14T13:32:04;97641.00;;;30.10
19666;BMP180;9980;51.020;7.772;2023-06-14T13:34:31;97634.00;;;30.00
19666;BMP180;9980;51.020;7.772;2023-06-14T13:36:58;97635.00;;;30.00
19666;BMP180;9980;51.020;7.772;2023-06-14T13:39:27;97624.00;;;30.00
19666;BMP180;9980;51.020;7.772;2023-06-14T13:41:54;97628.00;;;30.00
19666;BMP180;9980;51.020;7.772;2023-06-14T13:44:21;97618.00;;;30.00
19666;BMP180;9980;51.020;7.772;2023-06-14T13:46:48;97620.00;;;30.00
19666;BMP180;9980;51.020;7.772;2023-06-14T13:49:16;97628.00;;;30.10
19666;BMP180;9980;51.020;7.772;2023-06-14T13:51:43;97627.00;;;30.10
19666;BMP180;9980;51.020;7.772;2023-06-14T13:54:13;97627.00;;;30.20
19666;BMP180;9980;51.020;7.772;2023-06-14T13:56:42;97625.00;;;30.20
19666;BMP180;9980;51.020;7.772;2023-06-14T13:59:09;97624.00;;;30.20
19666;BMP180;9980;51.020;7.772;2023-06-14T14:01:36;97611.00;;;30.30
19666;BMP180;9980;51.020;7.772;2023-06-14T14:04:03;97608.00;;;30.30
19666;BMP180;9980;51.020;7.772;2023-06-14T14:06:31;97607.00;;;30.30
19666;BMP180;9980;51.020;7.772;2023-06-14T14:08:58;97622.00;;;30.30
19666;BMP180;9980;51.020;7.772;2023-06-14T14:11:25;97632.00;;;30.30
19666;BMP180;9980;51.020;7.772;2023-06-14T14:13:52;97625.00;;;30.30
19666;BMP180;9980;51.020;7.772;2023-06-14T14:16:19;97621.00;;;30.40
19666;BMP180;9980;51.020;7.772;2023-06-14T14:18:46;97635.00;;;30.40
19666;BMP180;9980;51.020;7.772;2023-06-14T14:21:13;97631.00;;;30.40
19666;BMP180;9980;51.020;7.772;2023-06-14T14:23:41;97647.00;;;30.50
19666;BMP180;9980;51.020;7.772;2023-06-14T14:26:08;97623.00;;;30.50
19666;BMP180;9980;51.020;7.772;2023-06-14T14:28:34;97624.00;;;30.60
19666;BMP180;9980;51.020;7.772;2023-06-14T14:31:02;97619.00;;;30.60
19666;BMP180;9980;51.020;7.772;2023-06-14T14:33:29;97614.00;;;30.70
19666;BMP180;9980;51.020;7.772;2023-06-14T14:35:56;97615.00;;;30.70
19666;BMP180;9980;51.020;7.772;2023-06-14T14:38:23;97606.00;;;30.80
19666;BMP180;9980;51.020;7.772;2023-06-14T14:40:49;97608.00;;;30.80
19666;BMP180;9980;51.020;7.772;2023-06-14T14:43:16;97620.00;;;30.90
19666;BMP180;9980;51.020;7.772;2023-06-14T14:45:43;97608.00;;;30.90